Time;durP1;ratioP1;P1;durP2;ratioP2;P2;SDS_P1;SDS_P2;PMS_P1;PMS_P2;Temp;Humidity;BMP_temperature;BMP_pressure;BME280_temperature;BME280_humidity;BME280_pressure;Samples;Min_cycle;Max_cycle;Signal;HPM_P1;HPM_P2
2023/05/07 00:02:24;;;;;;;21.20;12.80;;;;;;;7.97;55.64;101944.81;4997198;28;20029;-68
2023/05/07 00:04:50;;;;;;;22.00;12.93;;;;;;;8.10;55.73;101941.19;4979565;28;20037;-69
2023/05/07 00:07:15;;;;;;;26.52;12.55;;;;;;;7.82;55.96;101935.44;5000998;28;20096;-67
2023/05/07 00:09:41;;;;;;;24.58;12.45;;;;;;;7.83;55.98;101937.16;5002446;28;20045;-72
2023/05/07 00:12:07;;;;;;;22.67;13.77;;;;;;;7.92;55.81;101937.06;5002306;28;20649;-73
2023/05/07 00:14:32;;;;;;;23.27;12.57;;;;;;;7.99;55.68;101933.50;4994988;28;20221;-70
2023/05/07 00:16:58;;;;;;;23.98;11.95;;;;;;;7.97;55.62;101932.66;5005068;28;20127;-70
2023/05/07 00:19:23;;;;;;;25.00;13.05;;;;;;;8.05;55.62;101938.63;5001290;28;20041;-70
2023/05/07 00:21:49;;;;;;;29.75;13.25;;;;;;;8.04;55.53;101931.69;5000641;28;20037;-71
2023/05/07 00:24:14;;;;;;;21.95;12.98;;;;;;;7.89;55.73;101947.50;5004621;28;20038;-69
2023/05/07 00:26:40;;;;;;;25.67;14.20;;;;;;;7.93;55.73;101949.19;5000092;28;20037;-69
2023/05/07 00:29:05;;;;;;;34.75;14.55;;;;;;;8.04;55.59;101952.50;5003026;28;20044;-68
2023/05/07 00:31:31;;;;;;;29.20;13.82;;;;;;;8.14;55.33;101948.06;5003078;28;20068;-68
2023/05/07 00:33:56;;;;;;;22.15;11.93;;;;;;;8.13;55.14;101949.78;4998399;28;20050;-69
2023/05/07 00:36:21;;;;;;;24.08;13.68;;;;;;;7.94;56.00;101948.31;5002258;28;20466;-68
2023/05/07 00:38:47;;;;;;;22.48;13.30;;;;;;;8.33;54.56;101949.53;4997058;28;20573;-69
2023/05/07 00:41:12;;;;;;;24.70;11.95;;;;;;;8.19;54.90;101955.81;5003480;28;20698;-69
2023/05/07 00:43:38;;;;;;;22.23;13.18;;;;;;;8.14;55.06;101953.28;4998560;28;20056;-69
2023/05/07 00:46:03;;;;;;;20.48;12.40;;;;;;;7.60;56.43;101942.59;4986863;28;20036;-69
2023/05/07 00:48:30;;;;;;;25.15;13.00;;;;;;;7.59;56.62;101952.16;4999096;28;20848;-72
2023/05/07 00:50:56;;;;;;;22.95;12.27;;;;;;;7.88;55.80;101940.56;4998072;28;20036;-69
2023/05/07 00:53:22;;;;;;;24.80;14.35;;;;;;;7.84;56.05;101936.28;5011542;28;20044;-69
2023/05/07 00:55:48;;;;;;;23.40;12.60;;;;;;;8.01;55.61;101941.28;4998801;28;20061;-69
2023/05/07 00:58:14;;;;;;;24.15;13.63;;;;;;;8.01;55.47;101941.28;4999179;28;20641;-69
2023/05/07 01:00:40;;;;;;;24.05;12.73;;;;;;;8.03;55.50;101940.38;4984361;28;20116;-69
2023/05/07 01:03:06;;;;;;;22.42;13.15;;;;;;;7.66;56.34;101939.94;5001267;28;20737;-72
2023/05/07 01:05:31;;;;;;;21.23;12.80;;;;;;;7.87;55.58;101931.03;5000905;28;20065;-70
2023/05/07 01:07:58;;;;;;;23.95;13.70;;;;;;;8.06;55.26;101935.13;4999142;28;20837;-69
2023/05/07 01:10:24;;;;;;;19.40;12.50;;;;;;;8.02;55.35;101938.66;5000183;28;20044;-69
2023/05/07 01:12:50;;;;;;;29.55;13.68;;;;;;;8.13;54.98;101938.53;4999217;28;20362;-68
2023/05/07 01:15:17;;;;;;;33.25;13.57;;;;;;;7.93;55.17;101950.03;4999792;28;20091;-69
2023/05/07 01:17:43;;;;;;;19.02;12.07;;;;;;;7.83;55.56;101950.19;5000875;28;20036;-70
2023/05/07 01:20:19;;;;;;;17.75;11.90;;;;;;;7.71;55.86;101944.25;4984597;28;20583;-70
2023/05/07 01:22:45;;;;;;;18.80;12.20;;;;;;;7.77;55.73;101939.84;5000968;28;20331;-69
2023/05/07 01:25:13;;;;;;;20.17;12.35;;;;;;;7.55;56.09;101947.84;4976412;28;20034;-70
2023/05/07 01:27:42;;;;;;;27.75;12.95;;;;;;;7.79;55.44;101951.09;4999903;28;20215;-71
2023/05/07 01:30:08;;;;;;;20.48;12.65;;;;;;;7.43;56.43;101947.97;5001426;28;20375;-73
2023/05/07 01:32:38;;;;;;;21.63;12.25;;;;;;;7.37;56.81;101945.41;4991107;28;20330;-70
2023/05/07 01:35:09;;;;;;;19.10;12.80;;;;;;;7.47;56.42;101947.06;4982989;28;20052;-70
2023/05/07 01:37:35;;;;;;;22.40;11.18;;;;;;;7.46;56.33;101950.53;5001172;28;20034;-72
2023/05/07 01:40:01;;;;;;;18.50;12.45;;;;;;;7.64;55.82;101941.69;5005930;28;20041;-69
2023/05/07 01:42:29;;;;;;;19.67;11.55;;;;;;;7.53;55.94;101946.97;4990014;28;20088;-70
2023/05/07 01:44:55;;;;;;;20.30;11.88;;;;;;;7.85;55.16;101945.81;5026301;28;20033;-72
2023/05/07 01:47:21;;;;;;;21.30;12.00;;;;;;;7.72;55.77;101956.34;5019927;28;20095;-74
2023/05/07 01:49:46;;;;;;;19.33;12.25;;;;;;;7.72;55.95;101953.75;5019935;28;20639;-72
2023/05/07 01:52:12;;;;;;;19.45;12.50;;;;;;;7.90;55.28;101954.44;5034283;28;20056;-73
2023/05/07 01:54:38;;;;;;;22.88;11.95;;;;;;;8.01;54.82;101949.09;5019175;28;20043;-70
2023/05/07 01:57:04;;;;;;;20.08;11.38;;;;;;;7.94;55.00;101948.31;5017042;28;21346;-71
2023/05/07 01:59:30;;;;;;;22.23;12.23;;;;;;;7.94;54.90;101941.38;5020066;28;20079;-72
2023/05/07 02:01:55;;;;;;;25.05;13.85;;;;;;;7.77;55.54;101947.66;5017104;28;20131;-72
2023/05/07 02:04:21;;;;;;;21.58;12.20;;;;;;;8.13;54.72;101943.72;5018794;28;20085;-72
2023/05/07 02:06:47;;;;;;;20.75;13.10;;;;;;;8.02;54.94;101951.66;5017899;28;20067;-74
2023/05/07 02:09:14;;;;;;;23.92;13.38;;;;;;;8.02;55.06;101954.28;5018873;28;20151;-72
2023/05/07 02:11:41;;;;;;;21.13;14.10;;;;;;;8.12;54.43;101950.69;5003937;28;20036;-72
2023/05/07 02:14:07;;;;;;;20.65;13.65;;;;;;;8.16;54.90;101956.72;5017541;28;20850;-71
2023/05/07 02:16:33;;;;;;;19.55;13.30;;;;;;;8.20;54.44;101952.31;5017080;28;20079;-77
2023/05/07 02:18:59;;;;;;;26.85;14.27;;;;;;;8.13;55.16;101952.41;5021680;28;20041;-78
2023/05/07 02:21:25;;;;;;;22.83;12.93;;;;;;;8.10;55.17;101949.00;5004238;28;20507;-77
2023/05/07 02:23:50;;;;;;;24.23;12.68;;;;;;;8.02;55.06;101946.47;5015416;28;20573;-77
2023/05/07 02:26:16;;;;;;;21.27;12.57;;;;;;;7.94;55.08;101945.72;5004790;28;20033;-76
2023/05/07 02:28:41;;;;;;;22.85;12.85;;;;;;;7.80;55.71;101932.88;5021334;28;20041;-76
2023/05/07 02:31:07;;;;;;;17.55;10.98;;;;;;;7.42;56.25;101935.81;5019978;28;20693;-77
2023/05/07 02:33:35;;;;;;;19.17;11.48;;;;;;;7.29;56.08;101937.69;5006956;28;20053;-77
2023/05/07 02:36:10;;;;;;;19.98;11.23;;;;;;;7.21;56.21;101942.09;5004023;28;20091;-77
2023/05/07 02:38:41;;;;;;;15.85;10.07;;;;;;;7.39;55.45;101948.88;4987909;28;20037;-70
2023/05/07 02:41:06;;;;;;;15.15;9.75;;;;;;;7.68;54.83;101944.25;4982491;28;20045;-71
2023/05/07 02:43:32;;;;;;;15.88;9.90;;;;;;;7.52;55.07;101947.88;4990557;28;20037;-71
2023/05/07 02:46:05;;;;;;;16.48;10.02;;;;;;;7.39;55.46;101951.47;4995006;28;20483;-72
2023/05/07 02:48:33;;;;;;;14.07;9.85;;;;;;;7.48;55.10;101949.63;4983961;28;20060;-72
2023/05/07 02:50:59;;;;;;;15.50;9.77;;;;;;;7.56;55.35;101952.19;4996954;28;20140;-70
2023/05/07 02:53:26;;;;;;;18.67;10.18;;;;;;;7.62;54.73;101949.50;4982412;28;20048;-70
2023/05/07 02:55:59;;;;;;;18.55;10.77;;;;;;;7.80;54.68;101958.00;4995971;28;20061;-72
2023/05/07 02:58:25;;;;;;;20.33;10.27;;;;;;;7.61;55.29;101960.81;4996975;28;20135;-70
2023/05/07 03:00:52;;;;;;;21.35;11.45;;;;;;;7.43;55.64;101955.75;4998824;28;20048;-70
2023/05/07 03:03:26;;;;;;;18.83;11.63;;;;;;;7.50;55.47;101949.63;4998280;28;20409;-70
2023/05/07 03:05:52;;;;;;;16.38;10.65;;;;;;;7.33;55.72;101942.84;4982920;28;20029;-70
2023/05/07 03:08:18;;;;;;;19.60;10.93;;;;;;;7.31;55.82;101942.00;4998206;28;20074;-69
2023/05/07 03:10:43;;;;;;;15.80;10.88;;;;;;;7.33;55.76;101940.25;4984690;28;20484;-69
2023/05/07 03:13:09;;;;;;;16.50;11.05;;;;;;;6.94;56.61;101945.78;5011806;28;20029;-72
2023/05/07 03:15:34;;;;;;;18.80;11.30;;;;;;;6.91;56.65;101944.94;4996869;28;20041;-70
2023/05/07 03:18:00;;;;;;;17.35;11.30;;;;;;;7.21;55.88;101942.94;4991087;28;20691;-70
2023/05/07 03:20:25;;;;;;;20.70;11.27;;;;;;;7.19;55.87;101944.69;4996413;28;20077;-69
2023/05/07 03:22:51;;;;;;;21.83;12.35;;;;;;;7.33;55.61;101937.66;4993166;28;20501;-70
2023/05/07 03:25:17;;;;;;;21.58;11.25;;;;;;;7.05;56.44;101937.03;4998573;28;20051;-73
2023/05/07 03:27:42;;;;;;;20.05;10.60;;;;;;;7.37;55.65;101938.47;5000303;28;20029;-70
2023/05/07 03:30:08;;;;;;;19.38;12.00;;;;;;;7.20;56.17;101953.34;4999149;28;20469;-69
2023/05/07 03:32:35;;;;;;;27.45;11.90;;;;;;;6.98;56.57;101950.09;5006136;28;20045;-69
2023/05/07 03:35:04;;;;;;;18.70;11.27;;;;;;;7.12;56.04;101940.44;4994234;28;20939;-69
2023/05/07 03:37:30;;;;;;;17.55;10.90;;;;;;;6.98;56.82;101937.09;5011371;28;20041;-71
2023/05/07 03:39:56;;;;;;;18.08;11.40;;;;;;;6.91;56.74;101944.94;4997917;28;20041;-75
2023/05/07 03:42:23;;;;;;;22.50;11.57;;;;;;;7.26;55.94;101950.72;4982414;28;20040;-72
2023/05/07 03:44:51;;;;;;;19.52;11.00;;;;;;;7.12;56.23;101943.03;4977460;28;20040;-72
2023/05/07 03:47:17;;;;;;;21.48;11.80;;;;;;;7.12;55.85;101951.69;5000095;28;20030;-72
2023/05/07 03:49:43;;;;;;;21.88;12.07;;;;;;;7.03;55.96;101949.16;4998373;28;20565;-72
2023/05/07 03:52:08;;;;;;;21.63;12.02;;;;;;;6.75;56.77;101953.69;4999417;28;20752;-71
2023/05/07 03:54:34;;;;;;;22.23;11.32;;;;;;;6.91;56.04;101947.53;4984048;28;20473;-71
2023/05/07 03:57:00;;;;;;;17.23;10.50;;;;;;;6.93;56.02;101949.25;5004486;28;20443;-73
2023/05/07 03:59:26;;;;;;;18.77;10.65;;;;;;;6.45;57.16;101953.03;4981441;28;20594;-76
2023/05/07 04:01:52;;;;;;;19.25;10.75;;;;;;;6.63;57.22;101949.44;5000680;28;20073;-74
2023/05/07 04:04:20;;;;;;;18.05;9.93;;;;;;;6.58;56.84;101950.38;5000379;28;20055;-78
2023/05/07 04:06:45;;;;;;;20.38;11.32;;;;;;;6.63;56.92;101948.59;4986035;28;20037;-73
2023/05/07 04:09:11;;;;;;;18.05;10.40;;;;;;;7.06;55.41;101953.47;5009245;28;20037;-71
2023/05/07 04:11:39;;;;;;;16.27;9.98;;;;;;;6.72;56.59;101948.53;5004586;28;20056;-71
2023/05/07 04:14:08;;;;;;;17.27;11.20;;;;;;;6.54;57.03;101949.50;5005227;28;20249;-68
2023/05/07 04:16:35;;;;;;;20.15;11.38;;;;;;;6.39;57.05;101957.38;5017665;28;20123;-72
2023/05/07 04:19:01;;;;;;;18.20;10.80;;;;;;;6.28;57.32;101947.03;5002004;28;20521;-70
2023/05/07 04:21:26;;;;;;;16.50;10.32;;;;;;;6.34;57.14;101962.59;5019998;28;20032;-70
2023/05/07 04:23:53;;;;;;;20.55;11.55;;;;;;;6.36;57.45;101965.19;5019679;28;20041;-69
2023/05/07 04:26:18;;;;;;;21.58;10.75;;;;;;;6.39;57.32;101970.38;5022064;28;20272;-70
2023/05/07 04:28:45;;;;;;;15.20;9.52;;;;;;;6.55;56.96;101966.84;5036219;28;20047;-71
2023/05/07 04:31:11;;;;;;;18.65;10.27;;;;;;;6.45;56.60;101972.94;5014269;28;20037;-71
2023/05/07 04:33:37;;;;;;;17.80;10.35;;;;;;;6.42;56.97;101967.78;5018748;28;20115;-70
2023/05/07 04:36:04;;;;;;;16.20;10.25;;;;;;;6.76;56.07;101967.56;5021122;28;20033;-70
2023/05/07 04:38:34;;;;;;;17.00;9.68;;;;;;;6.68;56.07;101972.78;5034323;28;20087;-68
2023/05/07 04:41:05;;;;;;;17.80;11.05;;;;;;;6.74;56.26;101967.56;5021466;28;20758;-68
2023/05/07 04:43:33;;;;;;;19.15;10.65;;;;;;;6.63;56.21;101970.22;5013506;28;20584;-69
2023/05/07 04:46:00;;;;;;;22.45;11.45;;;;;;;6.39;57.60;101975.56;5019742;28;20476;-68
2023/05/07 04:48:27;;;;;;;16.75;9.73;;;;;;;6.73;56.46;101968.47;5016584;28;20030;-69
2023/05/07 04:50:52;;;;;;;19.02;10.38;;;;;;;6.70;56.53;101966.72;5019119;28;20055;-74
2023/05/07 04:53:19;;;;;;;18.48;11.32;;;;;;;6.46;57.55;101972.06;5018758;28;20509;-75
2023/05/07 04:55:45;;;;;;;19.08;11.20;;;;;;;6.54;57.10;101978.06;5020090;28;20041;-72
2023/05/07 04:58:12;;;;;;;18.92;10.90;;;;;;;6.72;56.79;101969.31;5021305;28;20130;-75
2023/05/07 05:00:39;;;;;;;17.52;10.55;;;;;;;6.41;57.30;101981.59;5020187;28;20033;-75
2023/05/07 05:03:06;;;;;;;21.98;11.02;;;;;;;6.22;57.89;101975.63;4999271;28;20017;-73
2023/05/07 05:05:32;;;;;;;15.50;9.77;;;;;;;6.58;57.13;101976.34;5001996;28;20049;-68
2023/05/07 05:07:58;;;;;;;18.70;10.15;;;;;;;6.41;57.31;101976.41;5021736;28;20528;-70
2023/05/07 05:10:25;;;;;;;18.27;10.45;;;;;;;6.29;57.85;101985.13;5002857;28;20044;-67
2023/05/07 05:12:51;;;;;;;19.23;10.13;;;;;;;6.24;57.60;101982.53;5018231;28;20029;-67
2023/05/07 05:15:17;;;;;;;21.10;9.55;;;;;;;6.53;57.03;101986.75;5000487;28;20690;-70
2023/05/07 05:17:42;;;;;;;14.18;9.05;;;;;;;6.35;57.41;101979.94;5000185;28;20056;-67
2023/05/07 05:20:09;;;;;;;18.52;9.65;;;;;;;6.50;56.93;101998.00;5010622;28;20045;-73
2023/05/07 05:22:35;;;;;;;17.70;9.70;;;;;;;6.73;56.64;101985.75;5017422;28;20025;-72
2023/05/07 05:25:01;;;;;;;18.20;10.05;;;;;;;6.51;56.96;101985.91;4995506;28;20071;-69
2023/05/07 05:27:30;;;;;;;16.85;9.68;;;;;;;6.34;57.59;101992.91;5020943;28;20091;-69
2023/05/07 05:29:56;;;;;;;16.35;8.90;;;;;;;6.57;57.14;102006.63;5004865;28;20756;-70
2023/05/07 05:32:21;;;;;;;15.88;9.48;;;;;;;6.44;57.48;101998.06;4993733;28;21693;-69
2023/05/07 05:34:48;;;;;;;18.73;10.00;;;;;;;6.51;56.76;102001.47;4998181;28;20514;-72
2023/05/07 05:37:14;;;;;;;21.10;8.68;;;;;;;6.45;56.96;102007.56;4980683;28;20037;-71
2023/05/07 05:39:45;;;;;;;15.52;8.63;;;;;;;6.18;57.43;102007.66;5000062;28;20426;-72
2023/05/07 05:42:11;;;;;;;17.63;8.30;;;;;;;6.78;56.42;102005.66;4996202;28;20025;-69
2023/05/07 05:44:36;;;;;;;13.75;8.82;;;;;;;6.79;55.86;102002.19;4996932;28;20048;-70
2023/05/07 05:47:02;;;;;;;12.30;8.30;;;;;;;6.84;55.98;102007.34;4996103;28;20053;-71
2023/05/07 05:49:29;;;;;;;15.95;9.00;;;;;;;6.45;56.81;102002.38;4996398;28;20095;-71
2023/05/07 05:51:55;;;;;;;14.35;7.60;;;;;;;6.31;57.28;102008.47;4983938;28;20048;-70
2023/05/07 05:54:23;;;;;;;14.30;7.85;;;;;;;6.49;56.44;102001.47;4995513;28;20272;-71
2023/05/07 05:56:49;;;;;;;12.77;7.68;;;;;;;6.70;56.05;102013.47;5000473;28;20037;-73
2023/05/07 05:59:15;;;;;;;11.43;7.55;;;;;;;6.63;55.58;102013.53;4995271;28;20065;-72
2023/05/07 06:01:41;;;;;;;11.38;6.75;;;;;;;6.24;56.76;102018.03;4998163;28;20120;-70
2023/05/07 06:04:07;;;;;;;13.93;8.82;;;;;;;6.22;57.06;102017.16;4997552;28;20217;-71
2023/05/07 06:06:33;;;;;;;13.10;7.68;;;;;;;6.12;57.04;102015.44;4995293;28;20036;-68
2023/05/07 06:09:00;;;;;;;13.25;7.32;;;;;;;6.23;56.87;102018.88;4999732;28;20041;-73
2023/05/07 06:11:36;;;;;;;12.95;7.50;;;;;;;6.77;55.73;102021.25;4997933;28;20475;-71
2023/05/07 06:14:02;;;;;;;12.38;6.82;;;;;;;6.41;56.14;102023.16;4997678;28;20136;-72
2023/05/07 06:16:29;;;;;;;14.88;7.93;;;;;;;6.47;55.99;102005.81;4994554;28;20037;-72
2023/05/07 06:18:56;;;;;;;13.75;7.80;;;;;;;6.61;55.79;102021.31;4999712;28;20033;-72
2023/05/07 06:21:21;;;;;;;9.68;7.20;;;;;;;6.69;55.81;102026.50;4982222;28;20103;-71
2023/05/07 06:24:03;;;;;;;13.30;7.20;;;;;;;6.46;56.17;102024.88;4984298;28;20113;-70
2023/05/07 06:26:32;;;;;;;13.05;7.57;;;;;;;6.46;56.13;102030.06;4983705;28;20122;-71
2023/05/07 06:28:58;;;;;;;10.45;7.00;;;;;;;6.61;55.83;102044.72;5005224;28;20338;-71
2023/05/07 06:31:33;;;;;;;13.48;6.70;;;;;;;6.64;55.79;102043.81;5015921;28;20052;-72
2023/05/07 06:34:02;;;;;;;12.50;7.28;;;;;;;6.48;55.52;102041.31;5021122;28;20045;-72
2023/05/07 06:36:34;;;;;;;10.23;7.43;;;;;;;6.61;55.41;102039.50;5006014;28;20290;-71
2023/05/07 06:39:04;;;;;;;10.35;7.00;;;;;;;6.72;55.01;102042.06;5019204;28;20087;-71
2023/05/07 06:41:29;;;;;;;12.43;7.35;;;;;;;6.69;55.62;102042.09;5016788;28;20324;-70
2023/05/07 06:44:00;;;;;;;12.50;8.23;;;;;;;6.94;54.97;102045.41;5018663;28;20702;-69
2023/05/07 06:46:34;;;;;;;9.98;6.13;;;;;;;6.76;55.79;102054.19;5009087;28;20367;-71
2023/05/07 06:49:00;;;;;;;15.02;8.07;;;;;;;6.44;57.09;102052.59;5019832;28;20116;-70
2023/05/07 06:51:27;;;;;;;12.57;7.30;;;;;;;6.55;57.11;102049.06;5032714;28;20128;-70
2023/05/07 06:53:53;;;;;;;12.52;7.22;;;;;;;6.62;57.04;102050.75;4995008;28;20068;-69
2023/05/07 06:56:19;;;;;;;14.27;8.32;;;;;;;6.64;57.01;102046.41;4997973;28;20128;-70
2023/05/07 06:58:46;;;;;;;12.35;8.15;;;;;;;6.42;57.41;102049.13;5013796;28;20048;-70
2023/05/07 07:01:12;;;;;;;13.90;7.85;;;;;;;6.52;57.37;102049.09;5016276;28;20029;-70
2023/05/07 07:03:41;;;;;;;12.73;7.72;;;;;;;6.72;57.17;102043.81;4991218;28;20036;-71
2023/05/07 07:06:07;;;;;;;12.85;6.72;;;;;;;6.57;57.46;102049.94;5029163;28;20025;-70
2023/05/07 07:08:34;;;;;;;11.90;8.25;;;;;;;6.48;57.98;102049.13;5007523;28;20501;-67
2023/05/07 07:11:00;;;;;;;12.98;7.75;;;;;;;6.70;57.21;102051.59;4996894;28;20530;-69
2023/05/07 07:13:28;;;;;;;13.77;7.25;;;;;;;6.77;57.32;102048.09;4975817;28;20088;-70
2023/05/07 07:15:57;;;;;;;;;;;;;;;6.70;57.41;102049.00;4997653;28;20040;-69
2023/05/07 07:18:23;;;;;;;13.07;6.97;;;;;;;7.00;56.72;102049.69;4997439;28;19917;-69
2023/05/07 07:20:52;;;;;;;12.65;8.02;;;;;;;6.78;57.30;102056.78;5002405;28;20549;-71
2023/05/07 07:23:18;;;;;;;13.73;8.27;;;;;;;6.96;56.73;102050.59;4997558;28;20032;-69
2023/05/07 07:25:44;;;;;;;15.38;7.95;;;;;;;7.16;56.35;102053.09;4988116;28;20038;-69
2023/05/07 07:28:10;;;;;;;11.13;7.40;;;;;;;7.18;56.34;102051.34;5002091;28;20741;-69
2023/05/07 07:30:37;;;;;;;12.07;7.97;;;;;;;7.10;56.44;102053.97;5001936;28;20025;-71
2023/05/07 07:33:03;;;;;;;11.73;6.80;;;;;;;6.90;56.64;102047.16;5003650;28;20858;-70
2023/05/07 07:35:32;;;;;;;11.98;8.10;;;;;;;6.90;57.00;102046.28;4994376;28;20041;-70
2023/05/07 07:38:01;;;;;;;13.13;8.40;;;;;;;6.93;57.22;102050.59;5005176;28;20036;-68
2023/05/07 07:40:27;;;;;;;13.18;7.53;;;;;;;7.16;56.54;102053.94;5000013;28;20046;-69
2023/05/07 07:42:53;;;;;;;14.85;8.57;;;;;;;6.94;56.54;102047.16;5001244;28;20465;-70
2023/05/07 07:45:19;;;;;;;12.63;8.13;;;;;;;7.10;56.17;102049.63;5019541;28;20450;-69
2023/05/07 07:47:47;;;;;;;12.45;8.27;;;;;;;6.83;57.04;102061.06;5025253;28;20512;-70
2023/05/07 07:50:13;;;;;;;11.68;7.95;;;;;;;6.76;57.12;102059.38;5019753;28;20064;-69
2023/05/07 07:52:39;;;;;;;14.45;8.25;;;;;;;6.65;57.71;102066.34;5013653;28;20405;-70
2023/05/07 07:55:06;;;;;;;10.43;6.93;;;;;;;7.18;56.32;102057.41;5015086;28;20182;-69
2023/05/07 07:57:32;;;;;;;13.88;7.55;;;;;;;7.15;56.50;102062.59;5039241;28;20041;-70
2023/05/07 07:59:58;;;;;;;10.27;6.82;;;;;;;6.81;57.38;102057.59;5023143;28;20030;-70
2023/05/07 08:02:25;;;;;;;10.10;7.45;;;;;;;6.84;57.45;102067.13;4985606;28;20080;-70
2023/05/07 08:04:50;;;;;;;9.73;7.22;;;;;;;6.76;57.90;102064.56;5001357;28;20083;-70
2023/05/07 08:07:20;;;;;;;11.30;6.95;;;;;;;6.77;58.00;102063.69;5003618;28;20037;-69
2023/05/07 08:09:47;;;;;;;12.35;7.18;;;;;;;6.79;57.83;102074.94;4999729;28;20128;-69
2023/05/07 08:12:15;;;;;;;11.98;7.93;;;;;;;6.94;57.30;102071.41;5002726;28;20033;-68
2023/05/07 08:14:41;;;;;;;12.35;7.15;;;;;;;6.87;57.84;102065.38;5014593;28;20494;-69
2023/05/07 08:17:09;;;;;;;12.80;7.95;;;;;;;6.87;57.39;102070.56;5024335;28;20142;-69
2023/05/07 08:19:36;;;;;;;11.43;7.40;;;;;;;7.24;57.02;102067.72;5018487;28;20052;-68
2023/05/07 08:22:04;;;;;;;11.18;8.02;;;;;;;7.33;56.94;102070.28;5023537;28;20657;-69
2023/05/07 08:24:30;;;;;;;12.50;8.93;;;;;;;7.00;57.13;102070.50;5018506;28;20080;-68
2023/05/07 08:26:56;;;;;;;12.43;8.55;;;;;;;7.16;57.27;102064.34;5007223;28;20055;-69
2023/05/07 08:29:22;;;;;;;12.18;7.93;;;;;;;7.22;57.29;102068.63;5017494;28;20033;-69
2023/05/07 08:31:48;;;;;;;11.32;8.02;;;;;;;6.84;57.98;102065.41;5019377;28;20047;-69
2023/05/07 08:34:13;;;;;;;9.95;7.13;;;;;;;7.01;57.82;102069.63;5019073;28;20057;-71
2023/05/07 08:36:42;;;;;;;10.23;7.25;;;;;;;6.86;57.56;102068.84;5017886;28;20029;-70
2023/05/07 08:39:09;;;;;;;12.48;7.53;;;;;;;7.00;57.48;102070.50;5010406;28;20064;-69
2023/05/07 08:41:34;;;;;;;11.30;7.50;;;;;;;6.67;58.14;102069.81;5015135;28;20743;-68
2023/05/07 08:44:03;;;;;;;12.93;7.75;;;;;;;6.82;57.73;102072.34;5018020;28;20029;-69
2023/05/07 08:46:31;;;;;;;10.73;7.88;;;;;;;7.06;58.00;102078.25;5020196;28;20486;-67
2023/05/07 08:48:58;;;;;;;11.48;7.57;;;;;;;6.94;57.84;102078.34;5019112;28;20044;-69
2023/05/07 08:51:24;;;;;;;9.90;7.13;;;;;;;6.93;57.88;102077.44;5018581;28;20376;-69
2023/05/07 08:53:51;;;;;;;12.25;7.82;;;;;;;6.84;57.95;102082.72;5013937;28;20040;-67
2023/05/07 08:56:22;;;;;;;10.18;7.35;;;;;;;7.12;57.37;102083.44;5016679;28;20336;-68
2023/05/07 08:58:51;;;;;;;11.07;6.82;;;;;;;7.01;57.27;102080.03;5033790;28;20064;-69
2023/05/07 09:01:17;;;;;;;9.68;6.50;;;;;;;6.75;57.73;102083.59;5018697;28;20036;-69
2023/05/07 09:03:46;;;;;;;10.23;7.10;;;;;;;6.68;58.34;102081.91;5018306;28;20139;-67
2023/05/07 09:06:13;;;;;;;12.77;8.73;;;;;;;6.80;57.86;102087.06;5018610;28;20041;-68
2023/05/07 09:08:39;;;;;;;10.90;6.57;;;;;;;6.52;58.31;102085.47;5014088;28;20051;-68
2023/05/07 09:11:06;;;;;;;8.48;6.30;;;;;;;6.84;58.32;102085.31;5002879;28;20029;-69
2023/05/07 09:13:32;;;;;;;10.05;6.60;;;;;;;7.10;57.07;102090.38;5008367;28;20040;-68
2023/05/07 09:16:10;;;;;;;9.02;6.55;;;;;;;7.18;57.22;102088.59;5020533;28;20128;-68
2023/05/07 09:18:41;;;;;;;11.55;7.10;;;;;;;7.07;57.52;102091.25;5027659;28;20122;-69
2023/05/07 09:21:09;;;;;;;7.68;6.00;;;;;;;7.01;57.53;102086.09;5037223;28;20774;-69
2023/05/07 09:23:35;;;;;;;12.57;6.10;;;;;;;6.86;57.72;102084.44;4999101;28;20118;-69
2023/05/07 09:26:02;;;;;;;8.68;6.60;;;;;;;7.01;58.05;102087.81;5023344;28;20060;-68
2023/05/07 09:28:30;;;;;;;10.75;7.63;;;;;;;7.14;57.94;102092.09;5016565;28;20045;-69
2023/05/07 09:30:55;;;;;;;10.70;7.15;;;;;;;7.01;58.14;102085.22;5017957;28;20040;-67
2023/05/07 09:33:21;;;;;;;11.15;6.55;;;;;;;7.31;57.35;102079.84;5035480;28;20570;-70
2023/05/07 09:35:53;;;;;;;8.82;6.50;;;;;;;7.16;57.69;102085.13;5018369;28;20040;-69
2023/05/07 09:38:21;;;;;;;6.00;5.40;;;;;;;6.97;58.19;102088.72;5007171;28;20033;-69
2023/05/07 09:41:02;;;;;;;10.38;6.32;;;;;;;7.24;57.45;102083.34;4996382;28;20785;-69
2023/05/07 09:43:36;;;;;;;9.57;6.78;;;;;;;7.42;57.50;102084.09;4997688;28;21870;-70
2023/05/07 09:46:11;;;;;;;7.70;5.45;;;;;;;7.21;57.73;102069.50;4992787;28;20033;-70
2023/05/07 09:48:39;;;;;;;8.20;5.72;;;;;;;7.35;57.22;102080.66;4997010;28;20537;-67
2023/05/07 09:51:33;;;;;;;8.73;6.07;;;;;;;7.40;56.86;102075.44;5011935;28;20303;-65
2023/05/07 09:54:03;;;;;;;8.18;6.07;;;;;;;7.76;56.63;102081.22;5011665;28;20638;-70
2023/05/07 09:56:31;;;;;;;8.88;5.88;;;;;;;7.36;56.44;102079.81;4989961;28;20072;-68
2023/05/07 09:59:00;;;;;;;7.70;5.90;;;;;;;7.43;56.81;102078.03;4997839;28;20037;-68
2023/05/07 10:01:31;;;;;;;7.10;5.07;;;;;;;7.68;56.43;102076.97;5010988;28;20033;-69
2023/05/07 10:03:58;;;;;;;8.23;5.32;;;;;;;8.06;55.75;102078.34;5013327;28;20045;-69
2023/05/07 10:06:27;;;;;;;9.98;6.53;;;;;;;8.13;55.54;102086.97;4998390;28;20044;-68
2023/05/07 10:08:56;;;;;;;8.35;5.60;;;;;;;8.59;54.66;102090.81;4998932;28;20093;-69
2023/05/07 10:11:22;;;;;;;12.05;6.45;;;;;;;8.42;54.37;102088.38;4980823;28;20036;-68
2023/05/07 10:13:49;;;;;;;7.60;5.03;;;;;;;8.92;54.80;102090.41;4995780;28;20045;-69
2023/05/07 10:16:14;;;;;;;10.13;5.45;;;;;;;8.73;54.40;102089.75;4998873;28;20079;-70
2023/05/07 10:18:46;;;;;;;7.63;5.45;;;;;;;8.89;53.74;102095.63;4995571;28;20045;-68
2023/05/07 10:21:19;;;;;;;7.45;4.72;;;;;;;8.83;53.22;102106.16;4991977;28;20036;-69
2023/05/07 10:23:49;;;;;;;7.07;5.00;;;;;;;8.74;54.23;102101.06;5007924;28;20421;-70
2023/05/07 10:26:18;;;;;;;5.97;4.85;;;;;;;8.38;53.95;102092.75;4999504;28;20057;-68
2023/05/07 10:28:47;;;;;;;8.88;5.60;;;;;;;8.75;54.17;102097.56;4999906;28;20040;-68
2023/05/07 10:31:37;;;;;;;8.18;5.40;;;;;;;8.91;53.09;102099.09;5019123;28;20038;-69
2023/05/07 10:34:10;;;;;;;4.95;4.45;;;;;;;8.69;53.07;102100.22;5002860;28;20037;-69
2023/05/07 10:36:36;;;;;;;5.93;4.68;;;;;;;8.87;52.38;102097.41;5017236;28;20098;-70
2023/05/07 10:39:02;;;;;;;5.55;4.40;;;;;;;9.22;52.60;102087.38;5035454;28;20044;-70
2023/05/07 10:41:28;;;;;;;7.10;5.47;;;;;;;10.04;51.77;102086.91;5016022;28;20068;-70
2023/05/07 10:43:54;;;;;;;7.35;5.65;;;;;;;10.11;50.06;102094.59;5014909;28;20041;-70
2023/05/07 10:46:25;;;;;;;7.40;5.40;;;;;;;10.10;50.29;102098.13;5019655;28;20049;-69
2023/05/07 10:49:00;;;;;;;7.05;5.07;;;;;;;10.13;49.35;102095.44;5014260;28;20275;-69
2023/05/07 10:51:29;;;;;;;5.38;4.10;;;;;;;10.02;49.42;102097.38;5012057;28;20409;-70
2023/05/07 10:54:09;;;;;;;6.93;4.93;;;;;;;10.84;48.48;102094.91;5011861;28;20041;-70
2023/05/07 10:56:39;;;;;;;6.60;4.78;;;;;;;11.51;47.46;102096.88;5007366;28;20530;-71
2023/05/07 10:59:31;;;;;;;5.78;4.75;;;;;;;11.14;47.20;102099.50;5007835;28;20037;-70
2023/05/07 11:02:05;;;;;;;6.22;4.68;;;;;;;11.15;47.31;102090.72;5035145;28;20064;-70
2023/05/07 11:05:21;;;;;;;7.38;5.18;;;;;;;11.05;47.50;102090.94;5017612;28;20088;-71
2023/05/07 11:07:58;;;;;;;6.30;5.63;;;;;;;11.44;46.82;102080.44;5015436;28;20052;-70
2023/05/07 11:10:56;;;;;;;6.60;5.50;;;;;;;11.45;47.12;102070.84;5029808;28;20540;-71
2023/05/07 11:13:46;;;;;;;8.27;5.10;;;;;;;11.29;47.36;102074.72;5009707;28;20045;-70
2023/05/07 11:16:24;;;;;;;6.78;5.20;;;;;;;11.26;46.71;102070.41;5018192;28;20349;-71
2023/05/07 11:18:58;;;;;;;8.23;5.85;;;;;;;11.50;46.15;102078.56;5018099;28;20040;-70
2023/05/07 11:21:34;;;;;;;5.32;4.70;;;;;;;11.22;46.11;102074.00;5024717;28;20086;-70
2023/05/07 11:24:21;;;;;;;6.82;4.78;;;;;;;11.50;47.36;102078.56;5017464;28;20621;-70
2023/05/07 11:27:00;;;;;;;6.55;5.30;;;;;;;11.79;45.60;102085.72;5004691;28;20065;-69